createdAt,value
2022-09-10T00:00:00.164Z,979.7
2022-09-10T00:05:00.164Z,980.6
2022-09-10T00:10:00.272Z,980.4
2022-09-10T00:15:00.154Z,980.1
2022-09-10T00:20:00.173Z,980.6
2022-09-10T00:25:00.318Z,980.6
2022-09-10T00:30:00.272Z,980.1
2022-09-10T00:35:00.227Z,980.6
2022-09-10T00:40:00.313Z,980.1
2022-09-10T00:45:00.183Z,980.6
2022-09-10T00:50:00.171Z,980.6
2022-09-10T00:55:00.318Z,980.6
2022-09-10T01:00:00.220Z,980.6
2022-09-10T01:05:00.279Z,981
2022-09-10T01:10:00.175Z,981
2022-09-10T01:15:00.164Z,981
2022-09-10T01:20:00.192Z,980.8
2022-09-10T01:25:00.190Z,981
2022-09-10T01:30:00.278Z,981.9
2022-09-10T01:35:00.478Z,981.4
2022-09-10T01:40:00.315Z,982.3
2022-09-10T01:45:00.251Z,982.3
2022-09-10T01:50:00.229Z,981.9
2022-09-10T01:55:00.249Z,981.9
2022-09-10T02:00:00.318Z,981.9
2022-09-10T02:05:01.390Z,982.7
2022-09-10T02:10:00.180Z,982.7
2022-09-10T02:15:00.180Z,983.2
2022-09-10T02:20:00.233Z,982.3
2022-09-10T02:25:00.173Z,981.9
2022-09-10T02:30:00.233Z,981.9
2022-09-10T02:35:00.163Z,981.4
2022-09-10T02:40:00.338Z,981.9
2022-09-10T02:45:00.172Z,982.3
2022-09-10T02:50:00.171Z,982.3
2022-09-10T02:55:00.177Z,981.4
2022-09-10T03:00:00.191Z,982.1
2022-09-10T03:05:00.179Z,982.3
2022-09-10T03:10:00.206Z,982.3
2022-09-10T03:15:00.171Z,982.3
2022-09-10T03:20:00.178Z,981.9
2022-09-10T03:25:00.182Z,982.3
2022-09-10T03:30:00.183Z,982.3
2022-09-10T03:35:00.237Z,982.3
2022-09-10T03:40:00.233Z,982.5
2022-09-10T03:45:00.170Z,982.7
2022-09-10T03:50:00.201Z,981.9
2022-09-10T03:55:00.166Z,982.1
2022-09-10T04:00:00.177Z,982.3
2022-09-10T04:05:00.179Z,982.3
2022-09-10T04:10:00.164Z,981.9
2022-09-10T04:15:00.159Z,982.3
2022-09-10T04:20:00.161Z,981.9
2022-09-10T04:25:00.174Z,982.7
2022-09-10T04:30:00.176Z,982.3
2022-09-10T04:35:00.173Z,982.3
2022-09-10T04:40:00.288Z,983
2022-09-10T04:45:00.195Z,982.7
2022-09-10T04:50:00.187Z,983
2022-09-10T04:55:00.162Z,982.7
2022-09-10T05:00:00.174Z,982.7
2022-09-10T05:05:00.179Z,983
2022-09-10T05:10:00.174Z,982.5
2022-09-10T05:15:00.162Z,982.7
2022-09-10T05:20:00.167Z,983.2
2022-09-10T05:25:00.166Z,983.4
2022-09-10T05:30:00.173Z,983
2022-09-10T05:35:00.175Z,983.2
2022-09-10T05:40:00.257Z,983.2
2022-09-10T05:45:00.177Z,983
2022-09-10T05:50:00.287Z,983.2
2022-09-10T05:55:00.166Z,983.6
2022-09-10T06:00:00.175Z,983.2
2022-09-10T06:05:00.169Z,982.7
2022-09-10T06:10:00.267Z,983
2022-09-10T06:15:00.180Z,983.2
2022-09-10T06:20:00.260Z,983.6
2022-09-10T06:25:00.171Z,983.8
2022-09-10T06:30:00.209Z,983.6
2022-09-10T06:35:00.166Z,983.6
2022-09-10T06:40:00.280Z,983.6
2022-09-10T06:45:00.185Z,983.2
2022-09-10T06:50:00.171Z,983
2022-09-10T06:55:00.162Z,982.5
2022-09-10T07:00:00.187Z,982.7
2022-09-10T07:05:00.172Z,982.7
2022-09-10T07:10:00.208Z,983
2022-09-10T07:15:00.168Z,983
2022-09-10T07:20:00.470Z,982.7
2022-09-10T07:25:00.178Z,982.7
2022-09-10T07:30:00.198Z,982.7
2022-09-10T07:35:00.177Z,982.7
2022-09-10T07:40:00.244Z,983.2
2022-09-10T07:45:00.196Z,983.4
2022-09-10T07:50:00.184Z,983.2
2022-09-10T07:55:00.174Z,983
2022-09-10T08:00:00.174Z,983
2022-09-10T08:05:00.204Z,982.5
2022-09-10T08:10:00.366Z,982.7
2022-09-10T08:15:00.966Z,982.7
2022-09-10T08:20:00.194Z,982.7
2022-09-10T08:25:00.168Z,982.7
2022-09-10T08:30:00.195Z,982.3
2022-09-10T08:35:00.187Z,982.3
2022-09-10T08:40:00.298Z,982.3
2022-09-10T08:45:00.172Z,982.5
2022-09-10T08:50:00.242Z,982.1
2022-09-10T08:55:00.158Z,981.4
2022-09-10T09:00:00.178Z,981.4
2022-09-10T09:05:00.173Z,981.2
2022-09-10T09:10:00.193Z,981
2022-09-10T09:15:00.479Z,981.4
2022-09-10T09:20:00.217Z,980.4
2022-09-10T09:25:00.386Z,980.1
2022-09-10T09:30:00.212Z,980.4
2022-09-10T09:35:00.248Z,980.1
2022-09-10T09:40:00.423Z,980.1
2022-09-10T09:45:00.358Z,979.3
2022-09-10T09:50:00.182Z,979.7
2022-09-10T09:55:14.738Z,979.3
2022-09-10T10:00:00.321Z,979.3
2022-09-10T10:05:00.333Z,979.3
2022-09-10T10:10:00.218Z,978.4
2022-09-10T10:15:00.161Z,978
2022-09-10T10:20:00.201Z,978
2022-09-10T10:25:00.480Z,977.5
2022-09-10T10:30:00.299Z,976.7
2022-09-10T10:35:00.390Z,976.4
2022-09-10T10:40:00.326Z,975.4
2022-09-10T10:45:00.166Z,975.8
2022-09-10T10:50:00.185Z,974
2022-09-10T10:55:00.168Z,973.4
2022-09-10T11:00:00.193Z,974.3
2022-09-10T11:05:00.170Z,973.6
2022-09-10T11:10:00.273Z,973.2
2022-09-10T11:15:00.585Z,971.9
2022-09-10T11:20:26.685Z,973.6
2022-09-10T11:25:00.183Z,970.4
2022-09-10T11:30:00.163Z,971.2
2022-09-10T11:35:00.851Z,969.5
2022-09-10T11:40:00.522Z,968.4
2022-09-10T11:45:00.530Z,968.8
2022-09-10T11:50:00.176Z,966.9
2022-09-10T11:55:00.362Z,964.9
2022-09-10T12:00:00.778Z,965.4
2022-09-10T12:05:00.171Z,964.9
2022-09-10T12:10:00.173Z,966.4
2022-09-10T12:15:00.172Z,967.1
2022-09-10T12:20:00.320Z,967.5
2022-09-10T12:25:00.158Z,967.5
2022-09-10T12:30:00.158Z,966.9
2022-09-10T12:35:00.229Z,968
2022-09-10T12:40:00.413Z,967.7
2022-09-10T12:45:00.240Z,965.8
2022-09-10T12:50:00.210Z,965.4
2022-09-10T13:00:00.181Z,965.4
2022-09-10T13:05:00.178Z,962.3
2022-09-10T13:10:00.221Z,961.2
2022-09-10T13:15:00.458Z,963.2
2022-09-10T13:20:00.704Z,961.2
2022-09-10T13:25:00.193Z,961
2022-09-10T13:30:00.338Z,961
2022-09-10T13:35:00.158Z,961
2022-09-10T13:40:00.405Z,960.6
2022-09-10T13:45:00.178Z,960.6
2022-09-10T13:50:00.326Z,961
2022-09-10T13:55:00.174Z,960.6
2022-09-10T14:00:00.387Z,960.4
2022-09-10T14:05:00.175Z,960.1
2022-09-10T14:10:00.332Z,959
2022-09-10T14:15:00.176Z,959.3
2022-09-10T14:20:00.317Z,959.9
2022-09-10T14:25:00.183Z,959.5
2022-09-10T14:30:00.284Z,957.1
2022-09-10T14:35:01.945Z,958.8
2022-09-10T14:40:00.393Z,960.6
2022-09-10T14:45:00.163Z,961.7
2022-09-10T14:50:03.207Z,961.7
2022-09-10T14:55:00.163Z,962.3
2022-09-10T15:00:00.286Z,963.2
2022-09-10T15:05:00.257Z,963.6
2022-09-10T15:10:00.173Z,962.7
2022-09-10T15:15:00.165Z,962.3
2022-09-10T15:20:00.165Z,962.3
2022-09-10T15:25:10.405Z,962.7
2022-09-10T15:30:00.264Z,962.3
2022-09-10T15:35:00.179Z,962.7
2022-09-10T15:40:00.287Z,963.4
2022-09-10T15:45:00.209Z,963
2022-09-10T15:50:00.186Z,962.1
2022-09-10T15:55:00.281Z,962.3
2022-09-10T16:00:00.225Z,962.3
2022-09-10T16:05:00.239Z,962.3
2022-09-10T16:10:00.190Z,963.4
2022-09-10T16:15:00.265Z,964.5
2022-09-10T16:20:00.247Z,964.9
2022-09-10T16:25:00.249Z,965.8
2022-09-10T16:30:00.177Z,966.2
2022-09-10T16:35:00.867Z,965.8
2022-09-10T16:40:00.219Z,965.4
2022-09-10T16:45:00.169Z,965.8
2022-09-10T16:50:00.210Z,965.6
2022-09-10T16:55:00.175Z,966.4
2022-09-10T17:00:00.197Z,965.8
2022-09-10T17:05:00.178Z,965.4
2022-09-10T17:10:01.066Z,965.4
2022-09-10T17:15:00.397Z,966
2022-09-10T17:20:00.834Z,967.1
2022-09-10T17:25:00.352Z,967.1
2022-09-10T17:30:00.546Z,966.7
2022-09-10T17:35:00.258Z,967.5
2022-09-10T17:40:00.242Z,967.1
2022-09-10T17:45:00.183Z,967.7
2022-09-10T17:50:00.179Z,968
2022-09-10T17:55:00.178Z,969.3
2022-09-10T18:00:00.402Z,970.6
2022-09-10T18:05:00.173Z,971
2022-09-10T18:10:00.188Z,971
2022-09-10T18:15:00.237Z,971.4
2022-09-10T18:20:00.258Z,971.9
2022-09-10T18:25:00.202Z,972.7
2022-09-10T18:30:00.175Z,972.7
2022-09-10T18:35:00.158Z,972.7
2022-09-10T18:40:00.300Z,972.7
2022-09-10T18:45:00.172Z,973.6
2022-09-10T18:50:00.186Z,973.2
2022-09-10T18:55:00.164Z,973.8
2022-09-10T19:00:00.176Z,973.2
2022-09-10T19:05:11.341Z,973.4
2022-09-10T19:10:00.192Z,973.8
2022-09-10T19:15:00.323Z,974
2022-09-10T19:20:00.176Z,974.7
2022-09-10T19:25:00.182Z,974.5
2022-09-10T19:30:00.183Z,974.9
2022-09-10T19:35:00.217Z,975.4
2022-09-10T19:40:00.700Z,974.9
2022-09-10T19:45:00.159Z,976.2
2022-09-10T19:50:00.214Z,974.9
2022-09-10T19:55:00.185Z,975.1
2022-09-10T20:00:00.356Z,975.4
2022-09-10T20:05:00.184Z,975.4
2022-09-10T20:10:00.177Z,975.6
2022-09-10T20:15:00.165Z,974.9
2022-09-10T20:20:00.178Z,975.8
2022-09-10T20:25:00.187Z,976.2
2022-09-10T20:30:00.161Z,976.7
2022-09-10T20:35:00.190Z,976.4
2022-09-10T20:40:00.269Z,976.9
2022-09-10T20:45:00.237Z,978
2022-09-10T20:50:00.173Z,978
2022-09-10T20:55:00.226Z,978.2
2022-09-10T21:00:00.186Z,978.2
2022-09-10T21:05:00.176Z,978
2022-09-10T21:10:00.167Z,977.5
2022-09-10T21:15:00.185Z,977.3
2022-09-10T21:20:00.179Z,977.5
2022-09-10T21:25:00.168Z,977.7
2022-09-10T21:30:00.184Z,977.5
2022-09-10T21:35:00.182Z,977.7
2022-09-10T21:40:00.457Z,977.7
2022-09-10T21:45:00.253Z,978
2022-09-10T21:50:00.330Z,977.5
2022-09-10T21:55:00.210Z,977.5
2022-09-10T22:00:00.206Z,978
2022-09-10T22:05:00.167Z,978
2022-09-10T22:10:00.162Z,978.2
2022-09-10T22:15:00.168Z,977.7
2022-09-10T22:20:00.191Z,978
2022-09-10T22:25:00.160Z,978.4
2022-09-10T22:30:00.185Z,978.6
2022-09-10T22:35:00.183Z,978.8
2022-09-10T22:40:00.506Z,978.8
2022-09-10T22:45:00.236Z,978.8
2022-09-10T22:50:00.197Z,978.8
2022-09-10T22:55:00.252Z,978.8
2022-09-10T23:00:00.231Z,978.8
2022-09-10T23:05:00.291Z,978.8
2022-09-10T23:10:00.218Z,978.4
2022-09-10T23:15:00.175Z,978.8
2022-09-10T23:20:00.213Z,978.8
2022-09-10T23:25:00.177Z,979.3
2022-09-10T23:30:00.227Z,978.8
2022-09-10T23:35:00.166Z,978.6
2022-09-10T23:40:00.279Z,979
2022-09-10T23:45:00.170Z,979.3
2022-09-10T23:50:00.166Z,979.3
2022-09-10T23:55:00.160Z,979.5
